Time;durP1;ratioP1;P1;durP2;ratioP2;P2;SDS_P1;SDS_P2;PMS_P1;PMS_P2;Temp;Humidity;BMP_temperature;BMP_pressure;BME280_temperature;BME280_humidity;BME280_pressure;Samples;Min_cycle;Max_cycle;Signal;HPM_P1;HPM_P2
2024/02/09 00:00:22;;;;;;;4.10;2.83;;;;;;;4.97;100.00;91411.97;4809079;29;20042;-78
2024/02/09 00:02:48;;;;;;;4.03;2.90;;;;;;;4.95;100.00;91412.25;4808385;29;20038;-77
2024/02/09 00:05:15;;;;;;;4.20;2.90;;;;;;;4.99;100.00;91415.06;4811185;29;20023;-79
2024/02/09 00:07:46;;;;;;;4.00;2.47;;;;;;;5.04;100.00;91411.63;4806864;29;20080;-78
2024/02/09 00:10:13;;;;;;;3.95;2.60;;;;;;;5.08;100.00;91413.38;4806236;29;20051;-79
2024/02/09 00:12:40;;;;;;;3.88;2.40;;;;;;;5.11;100.00;91410.25;4807476;29;20078;-76
2024/02/09 00:15:07;;;;;;;4.53;2.88;;;;;;;5.13;100.00;91409.97;4808964;29;20075;-80
2024/02/09 00:17:33;;;;;;;3.90;2.60;;;;;;;5.12;100.00;91406.59;4808566;29;20042;-78
2024/02/09 00:19:59;;;;;;;3.75;2.40;;;;;;;5.10;100.00;91387.19;4807311;29;20038;-79
2024/02/09 00:22:25;;;;;;;3.38;2.20;;;;;;;5.13;100.00;91379.59;4806412;29;20499;-77
2024/02/09 00:24:52;;;;;;;2.70;1.80;;;;;;;5.19;100.00;91394.06;4803296;29;20124;-79
2024/02/09 00:27:18;;;;;;;3.08;2.00;;;;;;;5.20;100.00;91379.25;4806113;29;20116;-79
2024/02/09 00:29:44;;;;;;;3.22;1.95;;;;;;;5.20;100.00;91389.63;4809534;29;20139;-79
2024/02/09 00:32:09;;;;;;;385.15;10.32;;;;;;;5.32;100.00;91381.44;4807528;29;20047;-81
2024/02/09 00:34:35;;;;;;;499.75;13.85;;;;;;;5.29;100.00;91382.00;4807803;29;20074;-79
2024/02/09 00:37:02;;;;;;;323.77;8.68;;;;;;;5.24;100.00;91375.03;4806090;29;20445;-79
2024/02/09 00:39:33;;;;;;;611.83;15.35;;;;;;;5.20;100.00;91368.88;4807262;29;20039;-80
2024/02/09 00:42:04;;;;;;;494.45;12.40;;;;;;;5.10;100.00;91356.81;4807229;29;20051;-80
2024/02/09 00:44:31;;;;;;;311.60;8.07;;;;;;;5.08;100.00;91348.53;4800340;29;20061;-80
2024/02/09 00:47:01;;;;;;;441.77;11.75;;;;;;;5.03;100.00;91338.25;4806915;29;20035;-81
2024/02/09 00:49:28;;;;;;;363.88;10.02;;;;;;;5.02;100.00;91341.88;4809605;29;20105;-80
2024/02/09 00:51:55;;;;;;;3.67;2.10;;;;;;;4.95;100.00;91337.06;4797098;29;20031;-80
2024/02/09 00:54:22;;;;;;;12.93;2.40;;;;;;;5.02;100.00;91341.88;4812962;29;20102;-78
2024/02/09 00:56:48;;;;;;;19.45;2.60;;;;;;;5.00;100.00;91333.63;4811283;29;20051;-80
2024/02/09 00:59:17;;;;;;;12.68;1.95;;;;;;;5.08;100.00;91327.78;4810270;29;20049;-79
2024/02/09 01:01:43;;;;;;;390.15;9.35;;;;;;;5.05;100.00;91340.56;4808773;29;20519;-80
2024/02/09 01:04:11;;;;;;;206.38;5.35;;;;;;;4.98;100.00;91333.88;4792903;29;20123;-81
2024/02/09 01:06:38;;;;;;;75.35;3.10;;;;;;;4.96;100.00;91336.00;4809442;29;20023;-80
2024/02/09 01:09:06;;;;;;;335.88;7.30;;;;;;;4.95;100.00;91333.66;4811583;29;20514;-81
2024/02/09 01:11:32;;;;;;;48.90;2.60;;;;;;;4.94;100.00;91332.13;4812658;29;20102;-79
2024/02/09 02:46:51;;;;;;;3.53;2.45;;;;;;;5.17;100.00;91234.53;4815073;29;20045;-79
2024/02/09 03:05:42;;;;;;;7.18;2.97;;;;;;;5.00;100.00;91222.09;4814774;29;20046;-81
2024/02/09 03:08:09;;;;;;;4.38;2.90;;;;;;;5.01;100.00;91221.78;4812524;29;20027;-78
2024/02/09 03:10:37;;;;;;;4.63;3.05;;;;;;;5.03;100.00;91216.34;4806494;29;20276;-80
2024/02/09 03:13:07;;;;;;;4.95;2.97;;;;;;;5.06;100.00;91202.78;4812581;29;20107;-79
2024/02/09 03:15:34;;;;;;;50.15;4.28;;;;;;;5.09;100.00;91204.84;4812743;29;20034;-79
2024/02/09 03:18:04;;;;;;;220.38;9.35;;;;;;;5.17;100.00;91204.16;4795206;30;20044;-79
2024/02/09 03:20:31;;;;;;;4.15;2.88;;;;;;;5.09;100.00;91199.66;4811611;29;20533;-81
2024/02/09 03:23:01;;;;;;;3.88;2.83;;;;;;;5.10;100.00;91200.41;4780255;30;20056;-79
2024/02/09 03:25:28;;;;;;;3.67;2.67;;;;;;;5.14;100.00;91194.38;4812037;29;20041;-78
2024/02/09 03:27:53;;;;;;;4.00;2.80;;;;;;;5.14;100.00;91199.56;4814509;29;20133;-80
2024/02/09 03:30:19;;;;;;;4.30;2.97;;;;;;;5.14;100.00;91198.78;4809709;29;20062;-79
2024/02/09 03:32:45;;;;;;;5.07;3.15;;;;;;;5.30;100.00;91201.91;4809416;29;20030;-78
2024/02/09 03:35:12;;;;;;;4.13;2.67;;;;;;;5.29;100.00;91202.94;4813581;29;20035;-79
2024/02/09 03:37:44;;;;;;;4.72;3.08;;;;;;;5.22;100.00;91206.69;4815853;29;20046;-77
2024/02/09 03:40:11;;;;;;;7.20;2.97;;;;;;;5.21;100.00;91212.94;4817224;29;20110;-79
2024/02/09 03:42:36;;;;;;;4.28;2.85;;;;;;;5.24;100.00;91214.19;4816374;29;20099;-79
2024/02/09 03:45:04;;;;;;;3.85;2.75;;;;;;;5.22;100.00;91219.66;4816311;29;20063;-80
2024/02/09 03:47:29;;;;;;;3.55;2.50;;;;;;;5.25;100.00;91217.56;4816693;29;20037;-79
2024/02/09 03:49:59;;;;;;;3.78;2.65;;;;;;;5.22;100.00;91213.69;4806315;29;20031;-78
2024/02/09 03:52:25;;;;;;;11.50;2.58;;;;;;;5.20;100.00;91219.19;4812002;29;20046;-78
2024/02/09 03:54:52;;;;;;;4.18;2.80;;;;;;;5.22;100.00;91206.69;4808165;29;20127;-80
2024/02/09 03:57:19;;;;;;;24.23;3.78;;;;;;;5.17;100.00;91203.41;4815292;29;20054;-79
2024/02/09 03:59:44;;;;;;;33.03;3.80;;;;;;;5.35;100.00;91209.59;4814774;29;20042;-79
2024/02/09 04:02:10;;;;;;;4.38;3.10;;;;;;;5.25;100.00;91194.22;4815337;29;20080;-79
2024/02/09 04:04:36;;;;;;;20.23;4.13;;;;;;;5.30;100.00;91201.91;4798524;29;20045;-81
2024/02/09 04:07:02;;;;;;;4.20;3.10;;;;;;;5.29;100.00;91208.13;4815810;29;20043;-79
2024/02/09 04:09:28;;;;;;;3.45;1.88;;;;;;;5.33;100.00;91203.94;4812724;29;20030;-78
2024/02/09 04:11:57;;;;;;;3.28;2.20;;;;;;;5.37;100.00;91210.09;4814892;29;20076;-81
2024/02/09 04:14:22;;;;;;;3.90;2.78;;;;;;;5.17;100.00;91193.78;4796323;30;20039;-79
2024/02/09 04:16:51;;;;;;;3.10;2.10;;;;;;;5.32;100.00;91199.81;4808739;29;20087;-78
2024/02/09 04:19:17;;;;;;;6.28;2.72;;;;;;;5.24;100.00;91197.84;4815127;29;20054;-80
2024/02/09 04:21:47;;;;;;;250.25;10.32;;;;;;;5.40;100.00;91206.91;4815326;29;20391;-80
2024/02/09 04:24:25;;;;;;;93.43;5.60;;;;;;;5.27;100.00;91197.28;4815978;29;20137;-81
2024/02/09 04:26:55;;;;;;;462.00;16.52;;;;;;;5.20;100.00;91211.41;4813701;29;20082;-78
2024/02/09 04:29:22;;;;;;;20.45;3.53;;;;;;;5.21;100.00;91194.78;4798969;29;20118;-79
2024/02/09 04:31:51;;;;;;;6.63;2.42;;;;;;;5.24;100.00;91187.47;4813175;29;20054;-80
2024/02/09 04:34:17;;;;;;;666.40;26.65;;;;;;;5.27;100.00;91177.31;4810600;29;20149;-79
2024/02/09 04:36:47;;;;;;;502.02;19.17;;;;;;;5.19;100.00;91183.13;4812746;29;20043;-79
2024/02/09 04:39:13;;;;;;;224.82;9.07;;;;;;;5.15;100.00;91172.53;4814820;29;20568;-80
2024/02/09 04:41:43;;;;;;;69.10;4.80;;;;;;;5.34;100.00;91163.97;4812706;29;20046;-77
2024/02/09 04:44:10;;;;;;;51.22;4.85;;;;;;;5.37;100.00;91155.59;4814912;29;20039;-79
2024/02/09 04:46:36;;;;;;;48.20;4.93;;;;;;;5.32;100.00;91147.91;4813847;29;20018;-80
2024/02/09 04:49:06;;;;;;;17.48;2.92;;;;;;;5.33;100.00;91157.22;4814992;29;20042;-79
2024/02/09 04:51:35;;;;;;;9.25;3.20;;;;;;;5.31;100.00;91161.91;4810848;29;20050;-79
2024/02/09 04:54:01;;;;;;;173.32;8.23;;;;;;;5.33;100.00;91163.16;4813602;29;20034;-79
2024/02/09 04:56:30;;;;;;;75.97;5.68;;;;;;;5.29;100.00;91166.63;4813046;29;20111;-79
2024/02/09 04:58:59;;;;;;;28.35;4.25;;;;;;;5.24;100.00;91169.31;4811904;29;20515;-78
2024/02/09 05:01:29;;;;;;;17.70;3.67;;;;;;;5.29;100.00;91175.19;4812438;29;20027;-82
2024/02/09 05:04:00;;;;;;;65.97;5.13;;;;;;;5.26;100.00;91169.81;4807352;29;20043;-80
2024/02/09 05:06:29;;;;;;;132.93;7.63;;;;;;;5.27;100.00;91166.13;4812658;29;20031;-80
2024/02/09 05:08:56;;;;;;;4.57;3.30;;;;;;;5.24;100.00;91169.31;4807494;29;20352;-80
2024/02/09 05:11:29;;;;;;;4.82;3.38;;;;;;;5.23;100.00;91160.75;4809870;29;20059;-80
2024/02/09 05:13:57;;;;;;;8.43;3.80;;;;;;;5.22;100.00;91156.63;4806152;29;20027;-81
2024/02/09 05:16:23;;;;;;;5.13;3.67;;;;;;;5.24;100.00;91166.72;4811077;29;20110;-81
2024/02/09 05:18:50;;;;;;;7.78;4.70;;;;;;;5.25;100.00;91170.88;4811622;29;20070;-80
2024/02/09 05:21:17;;;;;;;6.13;4.35;;;;;;;5.28;100.00;91167.69;4814312;29;20067;-81
2024/02/09 05:23:42;;;;;;;9.25;6.45;;;;;;;5.41;100.00;91172.13;4809866;29;20043;-80
2024/02/09 05:26:09;;;;;;;6.53;4.63;;;;;;;5.34;100.00;91167.31;4814410;29;20060;-81
2024/02/09 05:28:39;;;;;;;6.25;4.03;;;;;;;5.41;100.00;91164.34;4811856;29;20050;-80
2024/02/09 05:31:15;;;;;;;7.25;4.68;;;;;;;5.41;100.00;91151.38;4796453;29;20053;-80
2024/02/09 05:33:42;;;;;;;91.63;6.47;;;;;;;5.38;100.00;91146.75;4805749;29;20179;-80
2024/02/09 05:36:17;;;;;;;194.13;9.10;;;;;;;5.54;100.00;91140.25;4814035;29;20039;-79
2024/02/09 05:38:42;;;;;;;892.25;32.35;;;;;;;5.37;100.00;91151.16;4814143;29;20049;-80
2024/02/09 05:41:08;;;;;;;661.95;22.40;;;;;;;5.29;100.00;91148.47;4812110;29;20043;-79
2024/02/09 05:43:35;;;;;;;737.53;24.73;;;;;;;5.31;100.00;91146.34;4804435;29;20034;-78
2024/02/09 05:46:01;;;;;;;113.65;5.90;;;;;;;5.29;100.00;91148.47;4803960;29;20080;-76
2024/02/09 05:48:27;;;;;;;502.00;15.90;;;;;;;5.42;100.00;91147.72;4797673;29;20066;-78
2024/02/09 05:50:52;;;;;;;286.65;10.88;;;;;;;5.46;100.00;91146.09;4801692;29;20058;-76
2024/02/09 05:53:18;;;;;;;896.25;31.65;;;;;;;5.41;100.00;91143.59;4802385;29;20034;-79
2024/02/09 05:55:45;;;;;;;520.88;18.05;;;;;;;5.35;100.00;91144.72;4803884;29;20031;-76
2024/02/09 05:58:11;;;;;;;790.53;25.88;;;;;;;5.28;100.00;91133.97;4809058;29;20066;-77
2024/02/09 06:00:38;;;;;;;102.32;6.35;;;;;;;5.26;100.00;91133.47;4807412;29;20103;-79
2024/02/09 06:03:09;;;;;;;243.95;9.45;;;;;;;5.26;100.00;91130.88;4802028;29;20562;-77
2024/02/09 06:05:40;;;;;;;549.35;19.05;;;;;;;5.32;100.00;91127.91;4803281;29;20041;-78
2024/02/09 06:08:08;;;;;;;57.22;6.10;;;;;;;5.33;100.00;91128.69;4802971;29;20042;-77
2024/02/09 06:10:35;;;;;;;53.70;5.28;;;;;;;5.36;100.00;91128.88;4806406;29;20026;-77
2024/02/09 06:13:01;;;;;;;101.18;6.53;;;;;;;5.42;100.00;91126.94;4810173;29;20083;-78
2024/02/09 06:15:27;;;;;;;705.83;22.83;;;;;;;5.41;100.00;91128.03;4813327;29;20133;-77
2024/02/09 06:17:52;;;;;;;11.52;4.78;;;;;;;5.34;100.00;91120.59;4805948;29;20522;-78
2024/02/09 06:20:22;;;;;;;224.55;10.10;;;;;;;5.38;100.00;91123.38;4812943;29;20058;-79
2024/02/09 06:22:49;;;;;;;12.32;6.38;;;;;;;5.39;100.00;91120.50;4813555;29;20119;-78
2024/02/09 06:25:14;;;;;;;63.58;7.32;;;;;;;5.40;100.00;91127.25;4810241;29;20061;-78
2024/02/09 06:27:40;;;;;;;477.83;16.42;;;;;;;5.41;100.00;91120.22;4812620;29;20058;-78
2024/02/09 06:30:06;;;;;;;95.90;7.95;;;;;;;5.40;100.00;91114.28;4810081;29;20530;-77
2024/02/09 06:32:32;;;;;;;14.60;8.88;;;;;;;5.40;100.00;91122.06;4812800;29;20043;-80
2024/02/09 06:34:59;;;;;;;38.40;16.48;;;;;;;5.40;100.00;91124.66;4813076;29;20043;-77
2024/02/09 06:37:24;;;;;;;19.45;7.35;;;;;;;5.43;100.00;91123.31;4796022;29;20039;-76
2024/02/09 06:39:50;;;;;;;30.23;6.55;;;;;;;5.42;100.00;91122.53;4808527;29;20046;-78
2024/02/09 06:42:17;;;;;;;98.20;7.15;;;;;;;5.39;100.00;91115.31;4809821;29;20075;-76
2024/02/09 06:44:44;;;;;;;392.92;15.68;;;;;;;5.44;100.00;91114.47;4813153;29;20056;-79
2024/02/09 06:47:10;;;;;;;68.60;6.82;;;;;;;5.42;100.00;91121.75;4812286;29;20168;-78
2024/02/09 06:49:37;;;;;;;47.53;6.35;;;;;;;5.40;100.00;91108.31;4811490;29;20154;-79
2024/02/09 06:52:04;;;;;;;13.93;5.20;;;;;;;5.46;100.00;91127.16;4813571;29;20046;-79
2024/02/09 06:54:30;;;;;;;9.48;6.07;;;;;;;5.45;100.00;91104.84;4814438;29;20072;-77
2024/02/09 06:56:55;;;;;;;10.27;6.40;;;;;;;5.46;100.00;91104.56;4811580;29;20090;-79
2024/02/09 06:59:23;;;;;;;10.15;6.00;;;;;;;5.45;100.00;91100.44;4813366;29;20328;-78
2024/02/09 07:01:49;;;;;;;17.08;5.93;;;;;;;5.56;100.00;91119.16;4814073;29;20049;-76
2024/02/09 07:04:18;;;;;;;30.20;5.47;;;;;;;5.57;100.00;91110.34;4814873;29;20043;-79
2024/02/09 07:06:52;;;;;;;19.65;5.90;;;;;;;5.59;100.00;91109.00;4813157;29;20066;-79
2024/02/09 07:09:20;;;;;;;6.75;4.97;;;;;;;5.58;100.00;91110.06;4812881;29;20054;-78
2024/02/09 07:11:47;;;;;;;7.78;4.63;;;;;;;5.57;100.00;91113.69;4812348;29;20047;-77
2024/02/09 07:14:17;;;;;;;7.05;5.13;;;;;;;5.59;100.00;91114.19;4814304;29;20082;-77
2024/02/09 07:16:46;;;;;;;6.45;4.70;;;;;;;5.59;100.00;91113.41;4810607;29;20028;-78
2024/02/09 07:19:12;;;;;;;8.02;4.72;;;;;;;5.58;100.00;91115.25;4813204;29;20057;-79
2024/02/09 07:21:42;;;;;;;6.63;4.47;;;;;;;5.60;100.00;91114.94;4815544;29;20039;-79
2024/02/09 07:24:08;;;;;;;6.80;4.45;;;;;;;5.60;100.00;91112.34;4815240;29;20038;-77
2024/02/09 07:26:35;;;;;;;6.63;4.55;;;;;;;5.60;100.00;91107.16;4813118;29;20051;-78
2024/02/09 07:29:01;;;;;;;6.70;4.68;;;;;;;5.61;100.00;91114.66;4813470;29;20045;-77
2024/02/09 07:31:27;;;;;;;8.05;4.88;;;;;;;5.62;100.00;91107.63;4814349;29;20538;-78
2024/02/09 07:33:53;;;;;;;6.63;4.53;;;;;;;5.61;100.00;91112.06;4806766;29;20042;-78
2024/02/09 07:36:20;;;;;;;6.85;4.90;;;;;;;5.64;100.00;91111.47;4809228;29;20023;-78
2024/02/09 07:38:47;;;;;;;5.97;4.50;;;;;;;5.67;100.00;91112.72;4812116;29;20051;-77
2024/02/09 07:41:19;;;;;;;6.35;4.40;;;;;;;5.68;100.00;91114.28;4814838;29;20507;-79
2024/02/09 07:43:46;;;;;;;6.78;4.78;;;;;;;5.70;100.00;91111.41;4814927;29;20046;-78
2024/02/09 07:46:12;;;;;;;6.00;4.20;;;;;;;5.71;100.00;91118.13;4814657;29;20031;-78
2024/02/09 07:48:38;;;;;;;7.05;4.45;;;;;;;5.72;100.00;91119.66;4814592;29;20116;-78
2024/02/09 07:51:04;;;;;;;6.60;4.18;;;;;;;5.80;100.00;91122.34;4812898;29;20182;-78
2024/02/09 07:53:33;;;;;;;5.60;3.17;;;;;;;6.02;100.00;91126.13;4813827;29;20041;-76
2024/02/09 07:55:59;;;;;;;6.72;3.70;;;;;;;5.99;100.00;91131.88;4813334;29;20674;-78
2024/02/09 07:58:25;;;;;;;5.60;3.25;;;;;;;5.87;100.00;91129.75;4810479;29;20047;-76
2024/02/09 08:00:54;;;;;;;5.13;3.10;;;;;;;5.78;100.00;91118.50;4813593;29;20743;-78
2024/02/09 08:03:20;;;;;;;5.25;3.55;;;;;;;5.78;100.00;91128.88;4814151;29;20038;-78
2024/02/09 08:05:49;;;;;;;101.38;6.32;;;;;;;5.79;100.00;91131.22;4814652;29;20088;-79
2024/02/09 08:08:15;;;;;;;37.17;4.68;;;;;;;5.76;100.00;91125.81;4807809;29;20113;-78
2024/02/09 08:10:40;;;;;;;16.85;4.70;;;;;;;5.78;100.00;91132.25;4812306;29;20081;-77
2024/02/09 08:13:08;;;;;;;146.60;7.13;;;;;;;5.74;100.00;91130.50;4813436;29;20026;-79
2024/02/09 08:15:34;;;;;;;7.10;3.63;;;;;;;5.70;100.00;91124.38;4809960;29;20076;-77
2024/02/09 08:18:00;;;;;;;7.35;3.80;;;;;;;5.66;100.00;91116.41;4809592;29;20043;-77
2024/02/09 08:20:26;;;;;;;70.60;4.63;;;;;;;5.69;100.00;91125.44;4812149;29;20045;-76
2024/02/09 08:22:53;;;;;;;118.45;5.60;;;;;;;5.90;100.00;91118.78;4812700;29;20088;-78
2024/02/09 08:25:19;;;;;;;458.05;14.00;;;;;;;5.78;100.00;91116.66;4813610;29;20114;-77
2024/02/09 08:27:46;;;;;;;209.55;7.85;;;;;;;5.77;100.00;91106.59;4811068;29;20088;-79
2024/02/09 08:30:12;;;;;;;274.73;9.10;;;;;;;5.74;100.00;91097.56;4811440;29;20042;-77
2024/02/09 08:32:39;;;;;;;375.67;11.57;;;;;;;5.76;100.00;91103.19;4807015;29;20102;-76
2024/02/09 08:35:06;;;;;;;460.35;13.63;;;;;;;5.63;100.00;91099.56;4811246;29;20079;-77
2024/02/09 08:37:32;;;;;;;173.73;6.75;;;;;;;5.74;100.00;91101.97;4811089;29;20098;-80
2024/02/09 08:39:58;;;;;;;407.48;11.88;;;;;;;5.64;100.00;91103.69;4812073;29;20034;-78
2024/02/09 08:42:25;;;;;;;509.55;15.40;;;;;;;5.57;100.00;91095.53;4808979;29;20043;-78
2024/02/09 08:44:51;;;;;;;71.10;4.53;;;;;;;5.57;100.00;91092.16;4806804;29;20201;-77
2024/02/09 08:47:16;;;;;;;40.95;3.72;;;;;;;5.60;100.00;91100.13;4810231;29;20035;-78
2024/02/09 08:49:43;;;;;;;376.15;11.80;;;;;;;5.69;100.00;91102.81;4805879;29;20023;-78
2024/02/09 08:52:10;;;;;;;123.05;5.38;;;;;;;5.72;100.00;91104.06;4807101;29;20130;-76
2024/02/09 08:54:36;;;;;;;15.02;2.72;;;;;;;5.58;100.00;91099.69;4809962;29;20038;-78
2024/02/09 08:57:01;;;;;;;6.93;2.47;;;;;;;5.52;100.00;91100.81;4807563;29;20099;-77
2024/02/09 08:59:27;;;;;;;7.40;2.40;;;;;;;5.50;100.00;91100.34;4806425;29;20051;-77
2024/02/09 09:01:53;;;;;;;4.05;2.60;;;;;;;5.47;100.00;91098.34;4795939;29;20047;-79
2024/02/09 09:04:19;;;;;;;3.53;2.30;;;;;;;5.46;100.00;91091.59;4805180;29;20034;-79
2024/02/09 09:06:45;;;;;;;3.60;2.50;;;;;;;5.50;100.00;91091.78;4806111;29;20452;-76
2024/02/09 09:09:14;;;;;;;9.18;2.30;;;;;;;5.52;100.00;91100.81;4796340;29;20129;-78
2024/02/09 09:11:41;;;;;;;5.72;2.22;;;;;;;5.52;100.00;91094.88;4806312;29;20039;-79
2024/02/09 09:14:08;;;;;;;4.38;2.30;;;;;;;5.52;100.00;91097.47;4805180;29;20443;-75
2024/02/09 09:16:33;;;;;;;2.95;1.77;;;;;;;5.60;100.00;91096.78;4805701;29;20045;-79
2024/02/09 09:19:05;;;;;;;2.75;1.77;;;;;;;5.61;100.00;91103.53;4800484;29;20059;-78
2024/02/09 09:21:31;;;;;;;3.25;1.80;;;;;;;5.60;100.00;91101.97;4804489;29;20512;-78
2024/02/09 09:23:59;;;;;;;3.05;1.85;;;;;;;5.60;100.00;91097.53;4805404;29;20415;-78
2024/02/09 09:26:30;;;;;;;2.55;1.70;;;;;;;5.62;100.00;91095.41;4804896;29;20043;-78
2024/02/09 09:29:00;;;;;;;2.45;1.60;;;;;;;5.64;100.00;91095.91;4785766;30;20055;-77
2024/02/09 09:31:27;;;;;;;2.45;1.60;;;;;;;5.68;100.00;91080.53;4787062;29;20063;-78
2024/02/09 09:33:58;;;;;;;2.28;1.60;;;;;;;5.71;100.00;91082.53;4804754;29;20043;-79
2024/02/09 09:36:29;;;;;;;3.05;1.65;;;;;;;5.69;100.00;91082.06;4801875;29;20035;-78
2024/02/09 09:38:55;;;;;;;2.15;1.40;;;;;;;5.70;100.00;91085.44;4804692;29;20125;-78
2024/02/09 09:41:20;;;;;;;1.55;1.33;;;;;;;5.70;100.00;91078.41;4803182;29;20126;-80
2024/02/09 09:43:52;;;;;;;2.38;1.60;;;;;;;5.73;100.00;91061.47;4804458;29;20050;-78
2024/02/09 09:46:22;;;;;;;1.80;1.30;;;;;;;5.81;100.00;91071.19;4803268;29;20035;-77
2024/02/09 09:48:55;;;;;;;2.13;1.50;;;;;;;5.86;100.00;91073.69;4803013;29;20508;-79
2024/02/09 09:51:22;;;;;;;1.60;1.23;;;;;;;5.91;100.00;91067.63;4804407;29;20590;-79
2024/02/09 09:53:52;;;;;;;1.60;1.27;;;;;;;5.89;100.00;91065.28;4805350;29;20031;-76
2024/02/09 09:56:19;;;;;;;1.63;1.23;;;;;;;5.90;100.00;91059.06;4805206;29;20135;-79
2024/02/09 09:58:45;;;;;;;1.80;1.23;;;;;;;5.97;100.00;91059.47;4805096;29;20559;-78
2024/02/09 10:01:12;;;;;;;2.03;1.40;;;;;;;6.23;100.00;91064.09;4801846;29;20130;-77
2024/02/09 10:03:42;;;;;;;2.13;1.50;;;;;;;6.13;100.00;91064.34;4802900;29;20050;-79
2024/02/09 10:06:08;;;;;;;4.05;1.55;;;;;;;6.04;100.00;91072.03;4801555;29;20039;-78
2024/02/09 10:08:38;;;;;;;1.60;1.30;;;;;;;5.93;100.00;91065.50;4797801;29;20527;-78
2024/02/09 10:11:06;;;;;;;2.05;1.30;;;;;;;5.99;100.00;91067.72;4802761;29;20042;-78
2024/02/09 10:13:33;;;;;;;1.77;1.30;;;;;;;5.97;100.00;91067.25;4804344;29;20511;-78
2024/02/09 10:16:03;;;;;;;1.55;1.30;;;;;;;5.98;100.00;91066.16;4806775;29;20047;-80
2024/02/09 10:18:33;;;;;;;2.08;1.30;;;;;;;5.97;100.00;91059.47;4805538;29;20046;-78
2024/02/09 10:20:59;;;;;;;2.40;1.42;;;;;;;5.99;100.00;91056.53;4804901;29;20088;-78
2024/02/09 10:23:28;;;;;;;1.67;1.30;;;;;;;5.96;100.00;91052.72;4801710;29;20130;-80
2024/02/09 10:25:56;;;;;;;1.45;1.30;;;;;;;5.98;100.00;91050.59;4807810;29;20038;-78
2024/02/09 10:28:27;;;;;;;2.53;1.40;;;;;;;6.00;100.00;91058.84;4802835;29;20142;-78
2024/02/09 10:30:53;;;;;;;2.35;1.40;;;;;;;6.00;100.00;91056.25;4804166;29;20043;-80
2024/02/09 10:33:20;;;;;;;1.90;1.48;;;;;;;5.93;100.00;91049.91;4808279;29;20026;-76
2024/02/09 10:35:46;;;;;;;1.50;1.20;;;;;;;5.96;100.00;91052.72;4809968;29;20322;-76
2024/02/09 10:38:12;;;;;;;2.05;1.38;;;;;;;5.94;100.00;91051.44;4819529;29;20043;-76
2024/02/09 10:40:37;;;;;;;2.35;1.40;;;;;;;5.99;100.00;91057.34;4821296;29;20015;-76
2024/02/09 10:43:04;;;;;;;2.20;1.30;;;;;;;6.08;100.00;91054.03;4819824;29;20045;-75
2024/02/09 10:45:32;;;;;;;219.68;7.60;;;;;;;5.99;100.00;91049.53;4821184;29;20042;-74
2024/02/09 10:47:59;;;;;;;2.65;1.67;;;;;;;5.91;100.00;91034.63;4820461;29;20565;-75
2024/02/09 10:50:28;;;;;;;3.28;1.40;;;;;;;5.93;100.00;91042.88;4820591;29;20466;-75
2024/02/09 10:52:57;;;;;;;2.35;1.55;;;;;;;5.95;100.00;91042.63;4807103;29;20042;-74
2024/02/09 10:55:25;;;;;;;2.65;1.60;;;;;;;6.16;100.00;91035.91;4821056;29;20093;-76
2024/02/09 10:57:55;;;;;;;327.13;12.98;;;;;;;6.15;100.00;91042.19;4815199;29;20034;-76
2024/02/09 11:00:21;;;;;;;3.72;1.67;;;;;;;5.99;100.00;91039.16;4810525;29;20027;-75
2024/02/09 11:02:46;;;;;;;2.65;1.60;;;;;;;5.93;100.00;91050.69;4787649;29;20057;-76
2024/02/09 11:05:16;;;;;;;2.78;1.70;;;;;;;5.88;100.00;91045.59;4806098;29;20416;-76
2024/02/09 11:07:49;;;;;;;2.15;1.58;;;;;;;5.79;100.00;91039.56;4804969;29;20042;-76
2024/02/09 11:10:18;;;;;;;;;;;;;;;5.78;100.00;91038.00;4801476;29;20107;-76
2024/02/09 11:12:44;;;;;;;2.90;1.83;;;;;;;5.84;100.00;91029.81;4806081;29;19939;-77
2024/02/09 11:15:14;;;;;;;2.92;1.90;;;;;;;6.05;100.00;91029.41;4806793;29;20047;-77
2024/02/09 11:17:45;;;;;;;3.47;2.08;;;;;;;6.06;100.00;91025.75;4803738;29;20047;-78
2024/02/09 11:20:14;;;;;;;3.30;2.00;;;;;;;5.87;100.00;91014.72;4803524;29;20081;-76
2024/02/09 11:22:44;;;;;;;3.40;2.10;;;;;;;5.82;100.00;91013.00;4804147;29;20100;-78
2024/02/09 11:25:10;;;;;;;3.67;2.10;;;;;;;5.93;100.00;91021.34;4805793;29;20074;-77
2024/02/09 11:27:36;;;;;;;4.90;2.47;;;;;;;6.01;100.00;91018.84;4805644;29;20050;-75
2024/02/09 11:30:03;;;;;;;4.35;2.63;;;;;;;5.86;100.00;91011.34;4805718;29;20046;-75
2024/02/09 11:32:29;;;;;;;18.15;3.58;;;;;;;5.76;100.00;91004.53;4802744;29;20138;-77
2024/02/09 11:34:57;;;;;;;8.75;3.30;;;;;;;5.80;100.00;90986.53;4803683;29;20045;-76
2024/02/09 11:37:24;;;;;;;11.35;3.25;;;;;;;6.09;100.00;90988.78;4801024;29;20070;-75
2024/02/09 11:39:50;;;;;;;6.25;2.55;;;;;;;6.04;100.00;90987.09;4807509;29;20122;-75
2024/02/09 11:42:17;;;;;;;85.30;6.93;;;;;;;5.91;100.00;90993.06;4802904;29;20542;-77
2024/02/09 11:44:43;;;;;;;104.93;6.90;;;;;;;5.80;100.00;90973.56;4807674;29;20039;-78
2024/02/09 11:47:09;;;;;;;45.80;4.15;;;;;;;5.90;100.00;90985.53;4813854;29;20060;-75
2024/02/09 11:49:34;;;;;;;280.65;13.40;;;;;;;5.85;100.00;90983.84;4808123;29;20046;-76
2024/02/09 11:52:04;;;;;;;11.10;3.80;;;;;;;5.78;100.00;90983.47;4805531;29;20058;-77
2024/02/09 11:54:31;;;;;;;46.00;4.65;;;;;;;5.71;100.00;90983.13;4807966;29;20047;-77
2024/02/09 11:56:57;;;;;;;5.07;3.15;;;;;;;5.73;100.00;90976.56;4807210;29;20035;-77
2024/02/09 11:59:28;;;;;;;4.78;2.80;;;;;;;5.72;100.00;90974.25;4803108;29;20057;-77
2024/02/09 12:01:55;;;;;;;7.18;3.08;;;;;;;5.68;100.00;90968.13;4798526;29;20133;-78
2024/02/09 12:04:21;;;;;;;5.32;3.08;;;;;;;5.66;100.00;90965.81;4803449;29;20037;-77
2024/02/09 12:06:47;;;;;;;5.05;3.33;;;;;;;5.72;100.00;90958.66;4805477;29;20415;-76
2024/02/09 12:09:13;;;;;;;5.70;3.38;;;;;;;5.73;100.00;90960.22;4801786;29;20049;-76
2024/02/09 12:11:39;;;;;;;4.93;3.08;;;;;;;5.72;100.00;90943.09;4805461;29;20051;-77
2024/02/09 12:14:05;;;;;;;4.88;3.35;;;;;;;5.75;100.00;90943.28;4805231;29;20039;-77
2024/02/09 12:16:30;;;;;;;5.70;3.35;;;;;;;5.78;100.00;90944.53;4801804;29;20039;-78
2024/02/09 12:18:59;;;;;;;5.07;2.92;;;;;;;5.72;100.00;90943.88;4805059;29;20030;-77
2024/02/09 12:21:26;;;;;;;27.00;3.60;;;;;;;5.77;100.00;90940.41;4789578;29;20107;-76
2024/02/09 12:23:53;;;;;;;148.30;8.30;;;;;;;5.77;100.00;90935.22;4804669;29;20046;-77
2024/02/09 12:26:22;;;;;;;142.65;6.93;;;;;;;5.80;100.00;90926.81;4805183;29;20023;-76
2024/02/09 12:28:48;;;;;;;125.00;6.90;;;;;;;5.80;100.00;90913.84;4805900;29;20585;-78
2024/02/09 12:31:19;;;;;;;307.67;11.82;;;;;;;5.80;100.00;90922.38;4805276;29;20061;-76
2024/02/09 12:33:51;;;;;;;501.25;18.05;;;;;;;5.78;100.00;90921.16;4801736;29;20434;-78
2024/02/09 12:36:20;;;;;;;;;;;;;;;5.74;100.00;90909.81;4802790;29;20045;-74
2024/02/09 12:38:58;;;;;;;493.20;18.08;;;;;;;5.69;100.00;90915.13;4804879;29;19967;-79
2024/02/09 12:41:27;;;;;;;3.17;1.98;;;;;;;5.69;100.00;90909.94;4800765;29;20392;-77
2024/02/09 12:44:03;;;;;;;22.95;2.25;;;;;;;5.77;100.00;90909.25;4800707;29;20431;-76
2024/02/09 12:46:29;;;;;;;71.13;4.70;;;;;;;5.91;100.00;90899.56;4802595;29;20034;-76
2024/02/09 12:48:55;;;;;;;73.85;4.38;;;;;;;5.74;100.00;90899.44;4792507;29;20035;-77
2024/02/09 12:51:25;;;;;;;26.05;2.92;;;;;;;5.82;100.00;90893.53;4787448;29;20047;-78
2024/02/09 12:53:51;;;;;;;290.15;11.98;;;;;;;5.66;100.00;90897.56;4804352;29;20458;-77
2024/02/09 12:56:17;;;;;;;261.08;9.82;;;;;;;5.67;100.00;90899.06;4803470;29;20039;-77
2024/02/09 12:58:47;;;;;;;463.27;15.40;;;;;;;5.61;100.00;90893.25;4787714;29;20051;-77
2024/02/09 13:01:14;;;;;;;515.13;20.48;;;;;;;5.71;100.00;90892.25;4788726;29;20130;-77
2024/02/09 13:03:40;;;;;;;78.80;5.07;;;;;;;5.62;100.00;90892.94;4802555;29;20038;-77
2024/02/09 13:06:06;;;;;;;229.27;8.20;;;;;;;5.58;100.00;90904.19;4796650;29;20377;-77
2024/02/09 13:08:32;;;;;;;2.78;1.75;;;;;;;5.57;100.00;90893.06;4799442;29;20058;-76
2024/02/09 13:10:58;;;;;;;7.13;2.20;;;;;;;5.64;100.00;90896.00;4795234;29;20046;-76
2024/02/09 13:13:24;;;;;;;3.05;2.00;;;;;;;5.61;100.00;90891.41;4801498;29;20053;-76
2024/02/09 13:15:51;;;;;;;3.65;2.20;;;;;;;5.58;100.00;90899.00;4799593;29;20038;-77